sensor_id;sensor_type;location;lat;lon;timestamp;P1;P2;P0
80692;PMS5003;70055;39.436;-77.514;2024-01-15T00:00:28;1;1;
80692;PMS5003;70055;39.436;-77.514;2024-01-15T00:02:57;1;1;
80692;PMS5003;70055;39.436;-77.514;2024-01-15T00:05:26;3;3;
80692;PMS5003;70055;39.436;-77.514;2024-01-15T00:07:55;1;1;
80692;PMS5003;70055;39.436;-77.514;2024-01-15T00:10:23;1;1;
80692;PMS5003;70055;39.436;-77.514;2024-01-15T00:12:51;1;1;
80692;PMS5003;70055;39.436;-77.514;2024-01-15T00:15:19;1;1;
80692;PMS5003;70055;39.436;-77.514;2024-01-15T00:17:48;1;1;
80692;PMS5003;70055;39.436;-77.514;2024-01-15T00:20:17;3;3;
80692;PMS5003;70055;39.436;-77.514;2024-01-15T00:22:49;6;6;
80692;PMS5003;70055;39.436;-77.514;2024-01-15T00:25:18;4;3;
80692;PMS5003;70055;39.436;-77.514;2024-01-15T00:27:46;3;3;
80692;PMS5003;70055;39.436;-77.514;2024-01-15T00:30:14;1;1;
80692;PMS5003;70055;39.436;-77.514;2024-01-15T00:32:42;1;1;
80692;PMS5003;70055;39.436;-77.514;2024-01-15T00:35:10;1;1;
80692;PMS5003;70055;39.436;-77.514;2024-01-15T00:37:38;1;1;
80692;PMS5003;70055;39.436;-77.514;2024-01-15T00:40:06;3;3;
80692;PMS5003;70055;39.436;-77.514;2024-01-15T00:42:35;3;3;
80692;PMS5003;70055;39.436;-77.514;2024-01-15T00:45:03;3;1;
80692;PMS5003;70055;39.436;-77.514;2024-01-15T00:47:34;1;1;
80692;PMS5003;70055;39.436;-77.514;2024-01-15T00:50:03;3;1;
80692;PMS5003;70055;39.436;-77.514;2024-01-15T00:52:33;0;0;
80692;PMS5003;70055;39.436;-77.514;2024-01-15T00:55:01;1;1;
80692;PMS5003;70055;39.436;-77.514;2024-01-15T00:57:31;1;1;
80692;PMS5003;70055;39.436;-77.514;2024-01-15T01:00:00;3;1;
80692;PMS5003;70055;39.436;-77.514;2024-01-15T01:02:28;1;1;
80692;PMS5003;70055;39.436;-77.514;2024-01-15T01:04:56;1;1;
80692;PMS5003;70055;39.436;-77.514;2024-01-15T01:07:24;1;1;
80692;PMS5003;70055;39.436;-77.514;2024-01-15T01:09:53;1;1;
80692;PMS5003;70055;39.436;-77.514;2024-01-15T01:12:21;1;1;
80692;PMS5003;70055;39.436;-77.514;2024-01-15T01:14:51;1;1;
80692;PMS5003;70055;39.436;-77.514;2024-01-15T01:17:19;0;0;
80692;PMS5003;70055;39.436;-77.514;2024-01-15T01:19:46;1;1;
80692;PMS5003;70055;39.436;-77.514;2024-01-15T01:22:15;3;3;
80692;PMS5003;70055;39.436;-77.514;2024-01-15T01:24:44;3;1;
80692;PMS5003;70055;39.436;-77.514;2024-01-15T01:27:13;1;1;
80692;PMS5003;70055;39.436;-77.514;2024-01-15T01:29:41;1;1;
80692;PMS5003;70055;39.436;-77.514;2024-01-15T01:32:09;1;1;
80692;PMS5003;70055;39.436;-77.514;2024-01-15T01:34:40;3;3;
80692;PMS5003;70055;39.436;-77.514;2024-01-15T01:37:08;3;1;
80692;PMS5003;70055;39.436;-77.514;2024-01-15T01:39:39;1;1;
80692;PMS5003;70055;39.436;-77.514;2024-01-15T01:42:08;1;1;
80692;PMS5003;70055;39.436;-77.514;2024-01-15T01:44:38;0;0;
80692;PMS5003;70055;39.436;-77.514;2024-01-15T01:47:08;1;1;
80692;PMS5003;70055;39.436;-77.514;2024-01-15T01:49:38;0;0;
80692;PMS5003;70055;39.436;-77.514;2024-01-15T01:52:11;1;1;
80692;PMS5003;70055;39.436;-77.514;2024-01-15T01:54:43;1;1;
80692;PMS5003;70055;39.436;-77.514;2024-01-15T01:57:13;1;1;
80692;PMS5003;70055;39.436;-77.514;2024-01-15T01:59:42;1;1;
80692;PMS5003;70055;39.436;-77.514;2024-01-15T02:02:11;3;3;
80692;PMS5003;70055;39.436;-77.514;2024-01-15T02:04:42;1;1;
80692;PMS5003;70055;39.436;-77.514;2024-01-15T02:07:14;1;1;
80692;PMS5003;70055;39.436;-77.514;2024-01-15T02:09:43;3;3;
80692;PMS5003;70055;39.436;-77.514;2024-01-15T02:12:15;1;1;
80692;PMS5003;70055;39.436;-77.514;2024-01-15T02:14:47;1;1;
80692;PMS5003;70055;39.436;-77.514;2024-01-15T02:17:18;1;0;
80692;PMS5003;70055;39.436;-77.514;2024-01-15T02:19:49;1;1;
80692;PMS5003;70055;39.436;-77.514;2024-01-15T02:22:17;3;1;
80692;PMS5003;70055;39.436;-77.514;2024-01-15T02:24:48;1;1;
80692;PMS5003;70055;39.436;-77.514;2024-01-15T02:27:20;3;1;
80692;PMS5003;70055;39.436;-77.514;2024-01-15T02:29:48;0;0;
80692;PMS5003;70055;39.436;-77.514;2024-01-15T02:32:21;0;0;
80692;PMS5003;70055;39.436;-77.514;2024-01-15T02:34:50;1;1;
80692;PMS5003;70055;39.436;-77.514;2024-01-15T02:37:22;1;1;
80692;PMS5003;70055;39.436;-77.514;2024-01-15T02:39:50;1;1;
80692;PMS5003;70055;39.436;-77.514;2024-01-15T02:42:19;3;3;
80692;PMS5003;70055;39.436;-77.514;2024-01-15T02:44:48;3;3;
80692;PMS5003;70055;39.436;-77.514;2024-01-15T02:47:21;3;1;
80692;PMS5003;70055;39.436;-77.514;2024-01-15T02:49:52;1;1;
80692;PMS5003;70055;39.436;-77.514;2024-01-15T02:52:21;1;1;
80692;PMS5003;70055;39.436;-77.514;2024-01-15T02:54:51;1;1;
80692;PMS5003;70055;39.436;-77.514;2024-01-15T02:57:22;1;1;
80692;PMS5003;70055;39.436;-77.514;2024-01-15T02:59:54;1;1;
80692;PMS5003;70055;39.436;-77.514;2024-01-15T03:02:23;1;1;
80692;PMS5003;70055;39.436;-77.514;2024-01-15T03:04:52;1;1;
80692;PMS5003;70055;39.436;-77.514;2024-01-15T03:07:21;1;1;
80692;PMS5003;70055;39.436;-77.514;2024-01-15T03:09:51;1;1;
80692;PMS5003;70055;39.436;-77.514;2024-01-15T03:12:20;1;1;
80692;PMS5003;70055;39.436;-77.514;2024-01-15T03:14:51;3;3;
80692;PMS5003;70055;39.436;-77.514;2024-01-15T03:17:21;1;1;
80692;PMS5003;70055;39.436;-77.514;2024-01-15T03:19:48;1;1;
80692;PMS5003;70055;39.436;-77.514;2024-01-15T03:22:16;3;3;
80692;PMS5003;70055;39.436;-77.514;2024-01-15T03:24:46;1;1;
80692;PMS5003;70055;39.436;-77.514;2024-01-15T03:27:14;4;3;
80692;PMS5003;70055;39.436;-77.514;2024-01-15T03:29:43;4;4;
80692;PMS5003;70055;39.436;-77.514;2024-01-15T03:32:13;1;1;
80692;PMS5003;70055;39.436;-77.514;2024-01-15T03:34:43;3;3;
80692;PMS5003;70055;39.436;-77.514;2024-01-15T03:37:11;1;1;
80692;PMS5003;70055;39.436;-77.514;2024-01-15T03:39:39;1;1;
80692;PMS5003;70055;39.436;-77.514;2024-01-15T03:42:08;1;1;
80692;PMS5003;70055;39.436;-77.514;2024-01-15T03:44:38;3;3;
80692;PMS5003;70055;39.436;-77.514;2024-01-15T03:47:05;1;1;
80692;PMS5003;70055;39.436;-77.514;2024-01-15T03:49:36;1;1;
80692;PMS5003;70055;39.436;-77.514;2024-01-15T03:52:09;3;3;
80692;PMS5003;70055;39.436;-77.514;2024-01-15T03:54:37;1;1;
80692;PMS5003;70055;39.436;-77.514;2024-01-15T03:57:06;1;1;
80692;PMS5003;70055;39.436;-77.514;2024-01-15T03:59:34;0;0;
80692;PMS5003;70055;39.436;-77.514;2024-01-15T04:02:04;3;1;
80692;PMS5003;70055;39.436;-77.514;2024-01-15T04:04:32;1;1;
80692;PMS5003;70055;39.436;-77.514;2024-01-15T04:07:00;1;1;
80692;PMS5003;70055;39.436;-77.514;2024-01-15T04:09:29;0;0;
80692;PMS5003;70055;39.436;-77.514;2024-01-15T04:11:57;3;3;
80692;PMS5003;70055;39.436;-77.514;2024-01-15T04:14:27;1;1;
80692;PMS5003;70055;39.436;-77.514;2024-01-15T04:16:55;1;1;
80692;PMS5003;70055;39.436;-77.514;2024-01-15T04:19:24;1;1;
80692;PMS5003;70055;39.436;-77.514;2024-01-15T04:21:52;1;1;
80692;PMS5003;70055;39.436;-77.514;2024-01-15T04:24:20;1;1;
80692;PMS5003;70055;39.436;-77.514;2024-01-15T04:26:49;1;1;
80692;PMS5003;70055;39.436;-77.514;2024-01-15T04:29:17;1;1;
80692;PMS5003;70055;39.436;-77.514;2024-01-15T04:31:49;1;1;
80692;PMS5003;70055;39.436;-77.514;2024-01-15T04:34:18;3;3;
80692;PMS5003;70055;39.436;-77.514;2024-01-15T04:36:47;1;1;
80692;PMS5003;70055;39.436;-77.514;2024-01-15T04:39:14;3;1;
80692;PMS5003;70055;39.436;-77.514;2024-01-15T04:41:43;0;0;
80692;PMS5003;70055;39.436;-77.514;2024-01-15T04:44:12;0;0;
80692;PMS5003;70055;39.436;-77.514;2024-01-15T04:46:44;1;1;
80692;PMS5003;70055;39.436;-77.514;2024-01-15T04:49:12;1;1;
80692;PMS5003;70055;39.436;-77.514;2024-01-15T04:51:42;1;1;
80692;PMS5003;70055;39.436;-77.514;2024-01-15T04:54:10;1;1;
80692;PMS5003;70055;39.436;-77.514;2024-01-15T04:56:39;1;1;
80692;PMS5003;70055;39.436;-77.514;2024-01-15T04:59:06;3;3;
80692;PMS5003;70055;39.436;-77.514;2024-01-15T05:01:35;1;1;
80692;PMS5003;70055;39.436;-77.514;2024-01-15T05:04:03;3;3;
80692;PMS5003;70055;39.436;-77.514;2024-01-15T05:06:33;4;3;
80692;PMS5003;70055;39.436;-77.514;2024-01-15T05:09:01;1;1;
80692;PMS5003;70055;39.436;-77.514;2024-01-15T05:11:31;3;3;
80692;PMS5003;70055;39.436;-77.514;2024-01-15T05:13:59;3;3;
80692;PMS5003;70055;39.436;-77.514;2024-01-15T05:16:29;3;3;
80692;PMS5003;70055;39.436;-77.514;2024-01-15T05:18:56;1;1;
80692;PMS5003;70055;39.436;-77.514;2024-01-15T05:21:24;1;1;
80692;PMS5003;70055;39.436;-77.514;2024-01-15T05:23:54;3;3;
80692;PMS5003;70055;39.436;-77.514;2024-01-15T05:26:22;1;0;
80692;PMS5003;70055;39.436;-77.514;2024-01-15T05:28:53;3;3;
80692;PMS5003;70055;39.436;-77.514;2024-01-15T05:31:20;3;3;
80692;PMS5003;70055;39.436;-77.514;2024-01-15T05:33:48;3;3;
80692;PMS5003;70055;39.436;-77.514;2024-01-15T05:36:17;1;1;
80692;PMS5003;70055;39.436;-77.514;2024-01-15T05:38:47;1;1;
80692;PMS5003;70055;39.436;-77.514;2024-01-15T05:41:15;1;1;
80692;PMS5003;70055;39.436;-77.514;2024-01-15T05:43:42;3;3;
80692;PMS5003;70055;39.436;-77.514;2024-01-15T05:46:11;3;3;
80692;PMS5003;70055;39.436;-77.514;2024-01-15T05:48:41;4;1;
80692;PMS5003;70055;39.436;-77.514;2024-01-15T05:51:09;1;1;
80692;PMS5003;70055;39.436;-77.514;2024-01-15T05:53:37;1;1;
80692;PMS5003;70055;39.436;-77.514;2024-01-15T05:56:05;3;3;
80692;PMS5003;70055;39.436;-77.514;2024-01-15T05:58:32;3;3;
80692;PMS5003;70055;39.436;-77.514;2024-01-15T06:01:00;3;1;
80692;PMS5003;70055;39.436;-77.514;2024-01-15T06:03:30;1;1;
80692;PMS5003;70055;39.436;-77.514;2024-01-15T06:05:59;3;3;
80692;PMS5003;70055;39.436;-77.514;2024-01-15T06:08:27;3;3;
80692;PMS5003;70055;39.436;-77.514;2024-01-15T06:10:56;1;1;
80692;PMS5003;70055;39.436;-77.514;2024-01-15T06:13:25;3;3;
80692;PMS5003;70055;39.436;-77.514;2024-01-15T06:15:54;1;1;
80692;PMS5003;70055;39.436;-77.514;2024-01-15T06:18:22;3;3;
80692;PMS5003;70055;39.436;-77.514;2024-01-15T06:20:49;3;3;
80692;PMS5003;70055;39.436;-77.514;2024-01-15T06:23:18;1;1;
80692;PMS5003;70055;39.436;-77.514;2024-01-15T06:25:45;1;1;
80692;PMS5003;70055;39.436;-77.514;2024-01-15T06:28:13;3;1;
80692;PMS5003;70055;39.436;-77.514;2024-01-15T06:30:41;1;1;
80692;PMS5003;70055;39.436;-77.514;2024-01-15T06:33:09;1;1;
80692;PMS5003;70055;39.436;-77.514;2024-01-15T06:35:37;3;3;
80692;PMS5003;70055;39.436;-77.514;2024-01-15T06:38:05;1;1;
80692;PMS5003;70055;39.436;-77.514;2024-01-15T06:40:33;3;3;
80692;PMS5003;70055;39.436;-77.514;2024-01-15T06:43:02;3;3;
80692;PMS5003;70055;39.436;-77.514;2024-01-15T06:45:30;1;1;
80692;PMS5003;70055;39.436;-77.514;2024-01-15T06:47:59;3;3;
80692;PMS5003;70055;39.436;-77.514;2024-01-15T06:50:28;4;4;
80692;PMS5003;70055;39.436;-77.514;2024-01-15T06:52:55;1;1;
80692;PMS5003;70055;39.436;-77.514;2024-01-15T06:55:26;1;1;
80692;PMS5003;70055;39.436;-77.514;2024-01-15T06:57:57;1;1;
80692;PMS5003;70055;39.436;-77.514;2024-01-15T07:00:25;3;3;
80692;PMS5003;70055;39.436;-77.514;2024-01-15T07:02:53;3;3;
80692;PMS5003;70055;39.436;-77.514;2024-01-15T07:05:21;3;3;
80692;PMS5003;70055;39.436;-77.514;2024-01-15T07:07:50;1;1;
80692;PMS5003;70055;39.436;-77.514;2024-01-15T07:10:19;3;3;
80692;PMS5003;70055;39.436;-77.514;2024-01-15T07:12:47;3;1;
80692;PMS5003;70055;39.436;-77.514;2024-01-15T07:15:15;3;3;
80692;PMS5003;70055;39.436;-77.514;2024-01-15T07:17:43;1;1;
80692;PMS5003;70055;39.436;-77.514;2024-01-15T07:20:12;3;3;
80692;PMS5003;70055;39.436;-77.514;2024-01-15T07:22:40;3;3;
80692;PMS5003;70055;39.436;-77.514;2024-01-15T07:25:08;1;1;
80692;PMS5003;70055;39.436;-77.514;2024-01-15T07:27:37;3;1;
80692;PMS5003;70055;39.436;-77.514;2024-01-15T07:30:05;1;1;
80692;PMS5003;70055;39.436;-77.514;2024-01-15T07:32:35;4;3;
80692;PMS5003;70055;39.436;-77.514;2024-01-15T07:35:03;4;4;
80692;PMS5003;70055;39.436;-77.514;2024-01-15T07:37:39;1;1;
80692;PMS5003;70055;39.436;-77.514;2024-01-15T07:40:07;3;1;
80692;PMS5003;70055;39.436;-77.514;2024-01-15T07:42:37;3;1;
80692;PMS5003;70055;39.436;-77.514;2024-01-15T07:45:05;3;3;
80692;PMS5003;70055;39.436;-77.514;2024-01-15T07:47:33;1;1;
80692;PMS5003;70055;39.436;-77.514;2024-01-15T07:50:01;2;2;
80692;PMS5003;70055;39.436;-77.514;2024-01-15T07:52:30;4;2;
80692;PMS5003;70055;39.436;-77.514;2024-01-15T07:54:58;1;1;
80692;PMS5003;70055;39.436;-77.514;2024-01-15T07:57:27;1;1;
80692;PMS5003;70055;39.436;-77.514;2024-01-15T07:59:55;3;3;
80692;PMS5003;70055;39.436;-77.514;2024-01-15T08:02:23;3;3;
80692;PMS5003;70055;39.436;-77.514;2024-01-15T08:04:52;3;3;
80692;PMS5003;70055;39.436;-77.514;2024-01-15T08:07:20;1;1;
80692;PMS5003;70055;39.436;-77.514;2024-01-15T08:09:47;1;1;
80692;PMS5003;70055;39.436;-77.514;2024-01-15T08:12:15;3;3;
80692;PMS5003;70055;39.436;-77.514;2024-01-15T08:14:43;3;3;
80692;PMS5003;70055;39.436;-77.514;2024-01-15T08:17:11;3;3;
80692;PMS5003;70055;39.436;-77.514;2024-01-15T08:19:40;3;3;
80692;PMS5003;70055;39.436;-77.514;2024-01-15T08:22:09;3;3;
80692;PMS5003;70055;39.436;-77.514;2024-01-15T08:24:36;1;1;
80692;PMS5003;70055;39.436;-77.514;2024-01-15T08:27:04;3;3;
80692;PMS5003;70055;39.436;-77.514;2024-01-15T08:29:32;1;1;
80692;PMS5003;70055;39.436;-77.514;2024-01-15T08:32:00;4;2;
80692;PMS5003;70055;39.436;-77.514;2024-01-15T08:34:28;6;3;
80692;PMS5003;70055;39.436;-77.514;2024-01-15T08:36:55;3;3;
80692;PMS5003;70055;39.436;-77.514;2024-01-15T08:39:23;3;1;
80692;PMS5003;70055;39.436;-77.514;2024-01-15T08:41:51;1;1;
80692;PMS5003;70055;39.436;-77.514;2024-01-15T08:44:19;3;3;
80692;PMS5003;70055;39.436;-77.514;2024-01-15T08:46:47;3;3;
80692;PMS5003;70055;39.436;-77.514;2024-01-15T08:49:16;1;1;
80692;PMS5003;70055;39.436;-77.514;2024-01-15T08:51:44;1;1;
80692;PMS5003;70055;39.436;-77.514;2024-01-15T08:54:12;1;1;
80692;PMS5003;70055;39.436;-77.514;2024-01-15T08:56:40;1;1;
80692;PMS5003;70055;39.436;-77.514;2024-01-15T08:59:08;3;3;
80692;PMS5003;70055;39.436;-77.514;2024-01-15T09:01:36;3;3;
80692;PMS5003;70055;39.436;-77.514;2024-01-15T09:04:06;1;1;
80692;PMS5003;70055;39.436;-77.514;2024-01-15T09:06:34;3;3;
80692;PMS5003;70055;39.436;-77.514;2024-01-15T09:09:03;3;1;
80692;PMS5003;70055;39.436;-77.514;2024-01-15T09:11:31;3;3;
80692;PMS5003;70055;39.436;-77.514;2024-01-15T09:13:59;1;1;
80692;PMS5003;70055;39.436;-77.514;2024-01-15T09:16:27;3;3;
80692;PMS5003;70055;39.436;-77.514;2024-01-15T09:18:57;4;4;
80692;PMS5003;70055;39.436;-77.514;2024-01-15T09:21:25;4;3;
80692;PMS5003;70055;39.436;-77.514;2024-01-15T09:23:53;3;3;
80692;PMS5003;70055;39.436;-77.514;2024-01-15T09:26:21;3;1;
80692;PMS5003;70055;39.436;-77.514;2024-01-15T09:28:49;1;1;
80692;PMS5003;70055;39.436;-77.514;2024-01-15T09:31:17;3;3;
80692;PMS5003;70055;39.436;-77.514;2024-01-15T09:33:47;3;3;
80692;PMS5003;70055;39.436;-77.514;2024-01-15T09:36:16;4;4;
80692;PMS5003;70055;39.436;-77.514;2024-01-15T09:38:44;3;3;
80692;PMS5003;70055;39.436;-77.514;2024-01-15T09:41:11;3;3;
80692;PMS5003;70055;39.436;-77.514;2024-01-15T09:43:40;3;3;
80692;PMS5003;70055;39.436;-77.514;2024-01-15T09:46:08;4;4;
80692;PMS5003;70055;39.436;-77.514;2024-01-15T09:48:37;3;3;
80692;PMS5003;70055;39.436;-77.514;2024-01-15T09:51:06;1;1;
80692;PMS5003;70055;39.436;-77.514;2024-01-15T09:53:35;3;3;
80692;PMS5003;70055;39.436;-77.514;2024-01-15T09:57:10;1;1;
80692;PMS5003;70055;39.436;-77.514;2024-01-15T09:59:38;1;1;
80692;PMS5003;70055;39.436;-77.514;2024-01-15T10:02:09;1;1;
80692;PMS5003;70055;39.436;-77.514;2024-01-15T10:04:40;1;1;
80692;PMS5003;70055;39.436;-77.514;2024-01-15T10:07:07;3;3;
80692;PMS5003;70055;39.436;-77.514;2024-01-15T10:09:36;3;3;
80692;PMS5003;70055;39.436;-77.514;2024-01-15T10:12:04;3;3;
80692;PMS5003;70055;39.436;-77.514;2024-01-15T10:14:33;3;3;
80692;PMS5003;70055;39.436;-77.514;2024-01-15T10:17:08;3;3;
80692;PMS5003;70055;39.436;-77.514;2024-01-15T10:19:39;3;3;
80692;PMS5003;70055;39.436;-77.514;2024-01-15T10:22:07;4;3;
80692;PMS5003;70055;39.436;-77.514;2024-01-15T10:24:35;3;3;
80692;PMS5003;70055;39.436;-77.514;2024-01-15T10:27:05;3;3;
80692;PMS5003;70055;39.436;-77.514;2024-01-15T10:29:34;3;3;
80692;PMS5003;70055;39.436;-77.514;2024-01-15T10:32:01;3;3;
80692;PMS5003;70055;39.436;-77.514;2024-01-15T10:34:30;1;1;
80692;PMS5003;70055;39.436;-77.514;2024-01-15T10:36:58;1;1;
80692;PMS5003;70055;39.436;-77.514;2024-01-15T10:39:26;3;3;
80692;PMS5003;70055;39.436;-77.514;2024-01-15T10:41:55;4;4;
80692;PMS5003;70055;39.436;-77.514;2024-01-15T10:44:23;3;3;
80692;PMS5003;70055;39.436;-77.514;2024-01-15T10:46:52;4;4;
80692;PMS5003;70055;39.436;-77.514;2024-01-15T10:49:22;6;4;
80692;PMS5003;70055;39.436;-77.514;2024-01-15T10:51:49;1;1;
80692;PMS5003;70055;39.436;-77.514;2024-01-15T10:54:19;2;2;
80692;PMS5003;70055;39.436;-77.514;2024-01-15T10:56:48;4;4;
80692;PMS5003;70055;39.436;-77.514;2024-01-15T10:59:18;6;6;
80692;PMS5003;70055;39.436;-77.514;2024-01-15T11:01:47;7;7;
80692;PMS5003;70055;39.436;-77.514;2024-01-15T11:04:15;7;7;
80692;PMS5003;70055;39.436;-77.514;2024-01-15T11:06:45;10;10;
80692;PMS5003;70055;39.436;-77.514;2024-01-15T11:09:16;3;3;
80692;PMS5003;70055;39.436;-77.514;2024-01-15T11:11:45;7;7;
80692;PMS5003;70055;39.436;-77.514;2024-01-15T11:14:49;4;3;
80692;PMS5003;70055;39.436;-77.514;2024-01-15T11:17:18;6;6;
80692;PMS5003;70055;39.436;-77.514;2024-01-15T11:19:47;4;4;
80692;PMS5003;70055;39.436;-77.514;2024-01-15T11:22:49;4;4;
80692;PMS5003;70055;39.436;-77.514;2024-01-15T11:25:18;6;6;
80692;PMS5003;70055;39.436;-77.514;2024-01-15T11:27:48;10;10;
80692;PMS5003;70055;39.436;-77.514;2024-01-15T11:30:17;9;9;
80692;PMS5003;70055;39.436;-77.514;2024-01-15T11:32:47;6;6;
80692;PMS5003;70055;39.436;-77.514;2024-01-15T11:35:15;6;6;
80692;PMS5003;70055;39.436;-77.514;2024-01-15T11:37:57;12;12;
80692;PMS5003;70055;39.436;-77.514;2024-01-15T11:40:42;12;12;
80692;PMS5003;70055;39.436;-77.514;2024-01-15T11:43:12;9;9;
80692;PMS5003;70055;39.436;-77.514;2024-01-15T11:45:40;10;10;
80692;PMS5003;70055;39.436;-77.514;2024-01-15T11:48:09;7;7;
80692;PMS5003;70055;39.436;-77.514;2024-01-15T11:50:39;4;4;
80692;PMS5003;70055;39.436;-77.514;2024-01-15T11:53:10;6;6;
80692;PMS5003;70055;39.436;-77.514;2024-01-15T11:55:45;6;6;
80692;PMS5003;70055;39.436;-77.514;2024-01-15T11:58:13;4;4;
80692;PMS5003;70055;39.436;-77.514;2024-01-15T12:00:43;6;6;
80692;PMS5003;70055;39.436;-77.514;2024-01-15T12:03:14;7;7;
80692;PMS5003;70055;39.436;-77.514;2024-01-15T12:05:42;16;16;
80692;PMS5003;70055;39.436;-77.514;2024-01-15T12:08:10;10;10;
80692;PMS5003;70055;39.436;-77.514;2024-01-15T12:10:39;7;7;
80692;PMS5003;70055;39.436;-77.514;2024-01-15T12:13:09;9;7;
80692;PMS5003;70055;39.436;-77.514;2024-01-15T12:15:38;6;6;
80692;PMS5003;70055;39.436;-77.514;2024-01-15T12:18:09;10;6;
80692;PMS5003;70055;39.436;-77.514;2024-01-15T12:20:39;6;6;
80692;PMS5003;70055;39.436;-77.514;2024-01-15T12:23:07;3;3;
80692;PMS5003;70055;39.436;-77.514;2024-01-15T12:25:35;6;6;
80692;PMS5003;70055;39.436;-77.514;2024-01-15T12:28:03;4;4;
80692;PMS5003;70055;39.436;-77.514;2024-01-15T12:30:33;6;6;
80692;PMS5003;70055;39.436;-77.514;2024-01-15T12:33:02;6;6;
80692;PMS5003;70055;39.436;-77.514;2024-01-15T12:35:31;4;4;
80692;PMS5003;70055;39.436;-77.514;2024-01-15T12:38:02;4;4;
80692;PMS5003;70055;39.436;-77.514;2024-01-15T12:40:31;6;6;
80692;PMS5003;70055;39.436;-77.514;2024-01-15T12:42:59;6;6;
80692;PMS5003;70055;39.436;-77.514;2024-01-15T12:45:28;7;7;
80692;PMS5003;70055;39.436;-77.514;2024-01-15T12:47:59;7;7;
80692;PMS5003;70055;39.436;-77.514;2024-01-15T12:50:27;9;9;
80692;PMS5003;70055;39.436;-77.514;2024-01-15T12:52:56;7;7;
80692;PMS5003;70055;39.436;-77.514;2024-01-15T12:55:23;8;8;
80692;PMS5003;70055;39.436;-77.514;2024-01-15T12:57:51;10;10;
80692;PMS5003;70055;39.436;-77.514;2024-01-15T13:00:19;7;6;
80692;PMS5003;70055;39.436;-77.514;2024-01-15T13:02:47;10;8;
80692;PMS5003;70055;39.436;-77.514;2024-01-15T13:05:15;7;7;
80692;PMS5003;70055;39.436;-77.514;2024-01-15T13:07:44;7;6;
80692;PMS5003;70055;39.436;-77.514;2024-01-15T13:10:13;6;6;
80692;PMS5003;70055;39.436;-77.514;2024-01-15T13:12:45;7;7;
80692;PMS5003;70055;39.436;-77.514;2024-01-15T13:15:13;9;9;
80692;PMS5003;70055;39.436;-77.514;2024-01-15T13:17:41;8;8;
80692;PMS5003;70055;39.436;-77.514;2024-01-15T13:20:10;7;7;
80692;PMS5003;70055;39.436;-77.514;2024-01-15T13:22:38;9;7;
80692;PMS5003;70055;39.436;-77.514;2024-01-15T13:25:06;6;6;
80692;PMS5003;70055;39.436;-77.514;2024-01-15T13:27:35;7;7;
80692;PMS5003;70055;39.436;-77.514;2024-01-15T13:30:03;4;4;
80692;PMS5003;70055;39.436;-77.514;2024-01-15T13:32:34;9;9;
80692;PMS5003;70055;39.436;-77.514;2024-01-15T13:35:02;9;9;
80692;PMS5003;70055;39.436;-77.514;2024-01-15T13:37:29;6;6;
80692;PMS5003;70055;39.436;-77.514;2024-01-15T13:39:57;9;7;
80692;PMS5003;70055;39.436;-77.514;2024-01-15T13:42:25;13;12;
80692;PMS5003;70055;39.436;-77.514;2024-01-15T13:44:53;5;5;
80692;PMS5003;70055;39.436;-77.514;2024-01-15T13:47:22;7;7;
80692;PMS5003;70055;39.436;-77.514;2024-01-15T13:49:51;10;10;
80692;PMS5003;70055;39.436;-77.514;2024-01-15T13:52:21;7;7;
80692;PMS5003;70055;39.436;-77.514;2024-01-15T13:54:50;10;10;
80692;PMS5003;70055;39.436;-77.514;2024-01-15T13:57:18;7;7;
80692;PMS5003;70055;39.436;-77.514;2024-01-15T13:59:46;9;9;
80692;PMS5003;70055;39.436;-77.514;2024-01-15T14:02:14;7;7;
80692;PMS5003;70055;39.436;-77.514;2024-01-15T14:04:42;9;9;
80692;PMS5003;70055;39.436;-77.514;2024-01-15T14:07:10;9;7;
80692;PMS5003;70055;39.436;-77.514;2024-01-15T14:09:38;9;9;
80692;PMS5003;70055;39.436;-77.514;2024-01-15T14:12:07;7;7;
80692;PMS5003;70055;39.436;-77.514;2024-01-15T14:14:36;8;8;
80692;PMS5003;70055;39.436;-77.514;2024-01-15T14:17:04;7;7;
80692;PMS5003;70055;39.436;-77.514;2024-01-15T14:19:33;9;9;
80692;PMS5003;70055;39.436;-77.514;2024-01-15T14:22:01;9;6;
80692;PMS5003;70055;39.436;-77.514;2024-01-15T14:24:29;6;6;
80692;PMS5003;70055;39.436;-77.514;2024-01-15T14:26:58;7;7;
80692;PMS5003;70055;39.436;-77.514;2024-01-15T14:29:26;6;6;
80692;PMS5003;70055;39.436;-77.514;2024-01-15T14:31:56;8;8;
80692;PMS5003;70055;39.436;-77.514;2024-01-15T14:34:24;9;9;
80692;PMS5003;70055;39.436;-77.514;2024-01-15T14:36:53;8;8;
80692;PMS5003;70055;39.436;-77.514;2024-01-15T14:39:21;10;9;
80692;PMS5003;70055;39.436;-77.514;2024-01-15T14:41:49;12;10;
80692;PMS5003;70055;39.436;-77.514;2024-01-15T14:44:17;12;12;
80692;PMS5003;70055;39.436;-77.514;2024-01-15T14:46:45;9;9;
80692;PMS5003;70055;39.436;-77.514;2024-01-15T14:49:15;7;7;
80692;PMS5003;70055;39.436;-77.514;2024-01-15T14:51:43;7;7;
80692;PMS5003;70055;39.436;-77.514;2024-01-15T14:54:13;6;6;
80692;PMS5003;70055;39.436;-77.514;2024-01-15T14:56:41;7;7;
80692;PMS5003;70055;39.436;-77.514;2024-01-15T14:59:10;7;7;
80692;PMS5003;70055;39.436;-77.514;2024-01-15T15:01:38;7;6;
80692;PMS5003;70055;39.436;-77.514;2024-01-15T15:04:07;6;6;
80692;PMS5003;70055;39.436;-77.514;2024-01-15T15:06:34;6;6;
80692;PMS5003;70055;39.436;-77.514;2024-01-15T15:09:05;7;7;
80692;PMS5003;70055;39.436;-77.514;2024-01-15T15:11:33;5;5;
80692;PMS5003;70055;39.436;-77.514;2024-01-15T15:14:03;7;7;
80692;PMS5003;70055;39.436;-77.514;2024-01-15T15:16:33;6;6;
80692;PMS5003;70055;39.436;-77.514;2024-01-15T15:19:01;4;4;
80692;PMS5003;70055;39.436;-77.514;2024-01-15T15:21:31;4;4;
80692;PMS5003;70055;39.436;-77.514;2024-01-15T15:24:00;2;2;
80692;PMS5003;70055;39.436;-77.514;2024-01-15T15:26:27;5;5;
80692;PMS5003;70055;39.436;-77.514;2024-01-15T15:28:57;5;5;
80692;PMS5003;70055;39.436;-77.514;2024-01-15T15:31:25;4;4;
80692;PMS5003;70055;39.436;-77.514;2024-01-15T15:33:56;5;5;
80692;PMS5003;70055;39.436;-77.514;2024-01-15T15:36:25;5;5;
80692;PMS5003;70055;39.436;-77.514;2024-01-15T15:38:53;5;5;
80692;PMS5003;70055;39.436;-77.514;2024-01-15T15:41:21;7;7;
80692;PMS5003;70055;39.436;-77.514;2024-01-15T15:43:49;7;7;
80692;PMS5003;70055;39.436;-77.514;2024-01-15T15:46:17;8;5;
80692;PMS5003;70055;39.436;-77.514;2024-01-15T15:48:45;5;5;
80692;PMS5003;70055;39.436;-77.514;2024-01-15T15:51:13;7;7;
80692;PMS5003;70055;39.436;-77.514;2024-01-15T15:53:41;8;7;
80692;PMS5003;70055;39.436;-77.514;2024-01-15T15:56:09;4;4;
80692;PMS5003;70055;39.436;-77.514;2024-01-15T15:58:39;5;5;
80692;PMS5003;70055;39.436;-77.514;2024-01-15T16:01:07;10;8;
80692;PMS5003;70055;39.436;-77.514;2024-01-15T16:03:34;7;7;
80692;PMS5003;70055;39.436;-77.514;2024-01-15T16:06:02;5;5;
80692;PMS5003;70055;39.436;-77.514;2024-01-15T16:08:31;7;7;
80692;PMS5003;70055;39.436;-77.514;2024-01-15T16:10:58;17;17;
80692;PMS5003;70055;39.436;-77.514;2024-01-15T16:13:26;7;7;
80692;PMS5003;70055;39.436;-77.514;2024-01-15T16:15:54;7;7;
80692;PMS5003;70055;39.436;-77.514;2024-01-15T16:18:22;7;5;
80692;PMS5003;70055;39.436;-77.514;2024-01-15T16:20:50;7;7;
80692;PMS5003;70055;39.436;-77.514;2024-01-15T16:23:19;5;5;
80692;PMS5003;70055;39.436;-77.514;2024-01-15T16:25:51;8;8;
80692;PMS5003;70055;39.436;-77.514;2024-01-15T16:28:20;4;4;